Time;durP1;ratioP1;P1;durP2;ratioP2;P2;SDS_P1;SDS_P2;PMS_P1;PMS_P2;Temp;Humidity;BMP_temperature;BMP_pressure;BME280_temperature;BME280_humidity;BME280_pressure;Samples;Min_cycle;Max_cycle;Signal;HPM_P1;HPM_P2
2024/01/12 00:01:36;;;;;;;;;;;1.10;99.90;;;;;;5069667;28;20372;-33
2024/01/12 00:04:02;;;;;;;;;;;1.10;99.90;;;;;;5069449;28;19929;-33
2024/01/12 00:06:29;;;;;;;;;;;1.10;99.90;;;;;;5060640;28;19925;-34
2024/01/12 00:08:55;;;;;;;;;;;1.10;99.90;;;;;;5064717;28;19964;-35
2024/01/12 00:11:23;;;;;;;;;;;1.10;99.90;;;;;;5071091;28;20006;-33
2024/01/12 00:13:50;;;;;;;;;;;1.10;99.90;;;;;;5066198;28;19925;-32
2024/01/12 00:16:20;;;;;;;;;;;1.10;99.90;;;;;;5070102;28;19925;-32
2024/01/12 00:18:46;;;;;;;;;;;1.10;99.90;;;;;;5062740;28;19925;-31
2024/01/12 00:21:13;;;;;;;;;;;1.10;99.90;;;;;;5069113;28;19978;-32
2024/01/12 00:23:39;;;;;;;;;;;1.10;99.90;;;;;;5071537;28;20288;-33
2024/01/12 00:26:06;;;;;;;;;;;1.10;99.90;;;;;;5070321;28;19925;-33
2024/01/12 00:28:34;;;;;;;;;;;1.10;99.90;;;;;;5069902;28;19924;-33
2024/01/12 00:31:01;;;;;;;;;;;1.10;99.90;;;;;;5072254;28;19985;-36
2024/01/12 00:33:27;;;;;;;;;;;1.10;99.90;;;;;;5065777;28;19924;-32
2024/01/12 00:35:54;;;;;;;;;;;1.20;99.90;;;;;;5071246;28;19925;-32
2024/01/12 00:38:21;;;;;;;;;;;1.10;99.90;;;;;;5069322;28;20357;-33
2024/01/12 00:40:47;;;;;;;;;;;1.20;99.90;;;;;;5068473;28;20291;-33
2024/01/12 00:43:14;;;;;;;;;;;1.10;99.90;;;;;;5067602;28;19968;-33
2024/01/12 00:45:42;;;;;;;;;;;1.20;99.90;;;;;;5069000;28;19973;-32
2024/01/12 00:48:08;;;;;;;;;;;1.20;99.90;;;;;;5050919;28;19929;-35
2024/01/12 00:50:35;;;;;;;;;;;1.20;99.90;;;;;;5065911;28;20374;-33
2024/01/12 00:53:02;;;;;;;;;;;1.20;99.90;;;;;;5071291;28;19978;-33
2024/01/12 00:55:28;;;;;;;;;;;1.10;99.90;;;;;;5070029;28;19924;-33
2024/01/12 00:57:55;;;;;;;;;;;1.20;99.90;;;;;;5070972;28;19924;-33
2024/01/12 01:00:21;;;;;;;;;;;1.20;99.90;;;;;;5068848;28;19974;-34
2024/01/12 01:02:49;;;;;;;;;;;1.20;99.90;;;;;;5072633;28;19925;-33
2024/01/12 01:05:16;;;;;;;;;;;1.20;99.90;;;;;;5069833;28;19932;-34
2024/01/12 01:07:43;;;;;;;;;;;1.20;99.90;;;;;;5073666;28;19978;-33
2024/01/12 01:10:10;;;;;;;;;;;1.20;99.90;;;;;;5067599;28;19925;-33
2024/01/12 01:12:37;;;;;;;;;;;1.20;99.90;;;;;;5066218;28;19972;-34
2024/01/12 01:15:06;;;;;;;;;;;1.30;99.90;;;;;;5073185;28;20253;-33
2024/01/12 01:17:33;;;;;;;;;;;1.20;99.90;;;;;;5073919;28;20394;-33
2024/01/12 01:20:01;;;;;;;;;;;1.20;99.90;;;;;;5069224;28;20016;-33
2024/01/12 01:22:29;;;;;;;;;;;1.20;99.90;;;;;;5074291;28;19978;-33
2024/01/12 01:24:56;;;;;;;;;;;1.20;99.90;;;;;;5080209;28;19928;-34
2024/01/12 01:27:22;;;;;;;;;;;1.20;99.90;;;;;;5074834;28;19925;-34
2024/01/12 01:29:49;;;;;;;;;;;1.20;99.90;;;;;;5074872;28;20334;-34
2024/01/12 01:32:15;;;;;;;;;;;1.30;99.90;;;;;;5074093;28;19985;-33
2024/01/12 01:34:42;;;;;;;;;;;1.30;99.90;;;;;;5072893;28;19972;-34
2024/01/12 01:37:10;;;;;;;;;;;1.30;99.90;;;;;;5070925;28;19978;-35
2024/01/12 01:39:37;;;;;;;;;;;1.30;99.90;;;;;;5067480;28;19974;-34
2024/01/12 01:42:03;;;;;;;;;;;1.30;99.90;;;;;;5068939;28;20438;-33
2024/01/12 01:44:30;;;;;;;;;;;1.30;99.90;;;;;;5072497;28;19938;-33
2024/01/12 01:46:57;;;;;;;;;;;1.30;99.90;;;;;;5073242;28;19974;-33
2024/01/12 01:49:23;;;;;;;;;;;1.30;99.90;;;;;;5073117;28;20336;-33
2024/01/12 01:51:50;;;;;;;;;;;1.40;99.90;;;;;;5073956;28;20434;-33
2024/01/12 01:54:19;;;;;;;;;;;1.30;99.90;;;;;;5071537;28;19962;-32
2024/01/12 01:56:45;;;;;;;;;;;1.40;99.90;;;;;;5072484;28;19965;-33
2024/01/12 01:59:12;;;;;;;;;;;1.40;99.90;;;;;;5072380;28;19924;-33
2024/01/12 02:01:39;;;;;;;;;;;1.40;99.90;;;;;;5073277;28;19978;-32
2024/01/12 02:04:05;;;;;;;;;;;1.40;99.90;;;;;;5072291;28;19975;-32
2024/01/12 02:06:32;;;;;;;;;;;1.40;99.90;;;;;;5073070;28;19978;-32
2024/01/12 02:08:59;;;;;;;;;;;1.40;99.90;;;;;;5069268;28;19932;-32
2024/01/12 02:11:27;;;;;;;;;;;1.40;99.90;;;;;;5070182;28;19978;-34
2024/01/12 02:13:54;;;;;;;;;;;1.40;99.90;;;;;;5057891;28;19979;-32
2024/01/12 02:16:20;;;;;;;;;;;1.50;99.90;;;;;;5069089;28;20200;-33
2024/01/12 02:18:47;;;;;;;;;;;1.50;99.90;;;;;;5071544;28;20364;-33
2024/01/12 02:21:15;;;;;;;;;;;1.50;99.90;;;;;;5071006;28;19981;-33
2024/01/12 02:23:41;;;;;;;;;;;1.50;99.90;;;;;;5072219;28;19924;-34
2024/01/12 02:26:08;;;;;;;;;;;1.50;99.90;;;;;;5069841;28;19940;-32
2024/01/12 02:28:35;;;;;;;;;;;1.50;99.90;;;;;;5073565;28;20345;-34
2024/01/12 02:31:01;;;;;;;;;;;1.60;99.90;;;;;;5065698;28;19982;-34
2024/01/12 02:33:28;;;;;;;;;;;1.60;99.90;;;;;;5071954;28;19929;-34
2024/01/12 02:35:54;;;;;;;;;;;1.60;99.90;;;;;;5068022;28;20022;-34
2024/01/12 02:38:22;;;;;;;;;;;1.60;99.90;;;;;;5072154;28;20361;-33
2024/01/12 02:40:49;;;;;;;;;;;1.60;99.90;;;;;;5070025;28;20388;-33
2024/01/12 02:43:16;;;;;;;;;;;1.70;99.90;;;;;;5068784;28;19931;-34
2024/01/12 02:45:42;;;;;;;;;;;1.60;99.90;;;;;;5071307;28;19928;-32
2024/01/12 02:48:09;;;;;;;;;;;1.60;99.90;;;;;;5070111;28;19925;-32
2024/01/12 02:50:36;;;;;;;;;;;1.70;99.90;;;;;;5066862;28;19924;-32
2024/01/12 02:53:02;;;;;;;;;;;1.80;99.90;;;;;;5074271;28;19928;-34
2024/01/12 02:55:30;;;;;;;;;;;1.60;99.90;;;;;;5072749;28;19967;-34
2024/01/12 02:57:57;;;;;;;;;;;1.60;99.90;;;;;;5070878;28;19929;-33
2024/01/12 03:00:24;;;;;;;;;;;1.60;99.90;;;;;;5069289;28;20433;-32
2024/01/12 03:02:51;;;;;;;;;;;1.60;99.90;;;;;;5070591;28;19924;-33
2024/01/12 03:05:17;;;;;;;;;;;1.70;99.90;;;;;;5065371;28;20033;-33
2024/01/12 03:07:44;;;;;;;;;;;1.70;99.90;;;;;;5072454;28;20269;-34
2024/01/12 03:10:11;;;;;;;;;;;1.70;99.90;;;;;;5068863;28;19930;-33
2024/01/12 03:12:38;;;;;;;;;;;1.70;99.90;;;;;;5069440;28;19924;-33
2024/01/12 03:15:05;;;;;;;;;;;1.70;99.90;;;;;;5068534;28;19925;-33
2024/01/12 03:17:32;;;;;;;;;;;1.70;99.90;;;;;;5070884;28;19925;-33
2024/01/12 03:19:59;;;;;;;;;;;1.60;99.90;;;;;;5070687;28;19986;-34
2024/01/12 03:22:25;;;;;;;;;;;1.70;99.90;;;;;;5069784;28;20015;-33
2024/01/12 03:24:52;;;;;;;;;;;1.70;99.90;;;;;;5070827;28;19925;-32
2024/01/12 03:27:19;;;;;;;;;;;1.70;99.90;;;;;;5066957;28;19924;-33
2024/01/12 03:29:47;;;;;;;;;;;1.60;99.90;;;;;;5065350;28;19924;-34
2024/01/12 03:32:13;;;;;;;;;;;1.70;99.90;;;;;;5066801;28;19977;-31
2024/01/12 03:34:40;;;;;;;;;;;1.60;99.90;;;;;;5069766;28;19977;-33
2024/01/12 03:37:06;;;;;;;;;;;1.60;99.90;;;;;;5066665;28;20291;-32
2024/01/12 03:39:33;;;;;;;;;;;1.60;99.90;;;;;;5066761;28;19925;-32
2024/01/12 03:42:00;;;;;;;;;;;1.60;99.90;;;;;;5060333;28;19985;-31
2024/01/12 03:44:26;;;;;;;;;;;1.60;99.90;;;;;;5069357;28;19974;-32
2024/01/12 03:46:54;;;;;;;;;;;1.60;99.90;;;;;;5069175;28;20435;-31
2024/01/12 03:49:21;;;;;;;;;;;1.70;99.90;;;;;;5071377;28;19947;-32
2024/01/12 03:51:53;;;;;;;;;;;1.70;99.90;;;;;;5070573;28;19934;-33
2024/01/12 03:54:20;;;;;;;;;;;1.60;99.90;;;;;;5069581;28;19928;-34
2024/01/12 03:56:47;;;;;;;;;;;1.60;99.90;;;;;;5069753;28;19924;-33
2024/01/12 03:59:13;;;;;;;;;;;1.60;99.90;;;;;;5070877;28;19924;-33
2024/01/12 04:01:42;;;;;;;;;;;1.60;99.90;;;;;;5064033;28;19925;-32
2024/01/12 04:04:10;;;;;;;;;;;1.60;99.90;;;;;;5070427;28;19997;-32
2024/01/12 04:06:37;;;;;;;;;;;1.60;99.90;;;;;;5071286;28;19925;-34
2024/01/12 04:09:03;;;;;;;;;;;1.60;99.90;;;;;;5070342;28;20344;-32
2024/01/12 04:11:30;;;;;;;;;;;1.60;99.90;;;;;;5069124;28;19925;-32
2024/01/12 04:13:57;;;;;;;;;;;1.60;99.90;;;;;;5069941;28;19924;-33
2024/01/12 04:16:23;;;;;;;;;;;1.60;99.90;;;;;;5070012;28;19990;-34
2024/01/12 04:18:50;;;;;;;;;;;1.50;99.90;;;;;;5071437;28;20501;-33
2024/01/12 04:21:18;;;;;;;;;;;1.50;99.90;;;;;;5069482;28;21256;-34
2024/01/12 04:23:45;;;;;;;;;;;1.50;99.90;;;;;;5071923;28;19929;-31
2024/01/12 04:26:11;;;;;;;;;;;1.40;99.90;;;;;;5071993;28;19974;-32
2024/01/12 04:28:38;;;;;;;;;;;1.40;99.90;;;;;;5069486;28;20041;-31
2024/01/12 04:31:04;;;;;;;;;;;1.30;99.90;;;;;;5069935;28;19947;-32
2024/01/12 04:33:31;;;;;;;;;;;1.30;99.90;;;;;;5069614;28;19925;-32
2024/01/12 04:35:58;;;;;;;;;;;1.30;99.90;;;;;;5067437;28;19994;-32
2024/01/12 04:38:26;;;;;;;;;;;1.30;99.90;;;;;;5074155;28;19929;-32
2024/01/12 04:40:52;;;;;;;;;;;1.30;99.90;;;;;;5075318;28;19986;-31
2024/01/12 04:43:19;;;;;;;;;;;1.30;99.90;;;;;;5073848;28;20553;-32
2024/01/12 04:45:46;;;;;;;;;;;1.30;99.90;;;;;;5067536;28;19925;-33
2024/01/12 04:48:12;;;;;;;;;;;1.30;99.90;;;;;;5072071;28;19936;-32
2024/01/12 04:50:39;;;;;;;;;;;1.30;99.90;;;;;;5056320;28;19924;-33
2024/01/12 04:53:05;;;;;;;;;;;1.30;99.90;;;;;;5058126;28;19982;-34
2024/01/12 04:55:33;;;;;;;;;;;1.30;99.90;;;;;;5071975;28;20323;-32
2024/01/12 04:58:00;;;;;;;;;;;1.40;99.90;;;;;;5053608;28;20342;-34
2024/01/12 05:00:27;;;;;;;;;;;1.40;99.90;;;;;;5055681;28;19966;-32
2024/01/12 05:02:53;;;;;;;;;;;1.40;99.90;;;;;;5057811;28;19925;-33
2024/01/12 05:05:20;;;;;;;;;;;1.50;99.90;;;;;;5055335;28;19929;-33
2024/01/12 05:07:46;;;;;;;;;;;1.50;99.90;;;;;;5053406;28;19974;-34
2024/01/12 05:10:13;;;;;;;;;;;1.50;99.90;;;;;;5056712;28;20342;-32
2024/01/12 05:12:41;;;;;;;;;;;1.50;99.90;;;;;;5056221;28;19932;-32
2024/01/12 05:15:08;;;;;;;;;;;1.50;99.90;;;;;;5056718;28;20020;-32
2024/01/12 05:17:35;;;;;;;;;;;1.50;99.90;;;;;;5055492;28;20414;-34
2024/01/12 05:20:06;;;;;;;;;;;1.50;99.90;;;;;;5054873;28;19928;-32
2024/01/12 05:22:33;;;;;;;;;;;1.60;99.90;;;;;;5054199;28;20015;-32
2024/01/12 05:24:59;;;;;;;;;;;1.50;99.90;;;;;;5050966;28;19971;-33
2024/01/12 05:27:26;;;;;;;;;;;1.60;99.90;;;;;;5071830;28;19925;-33
2024/01/12 05:29:54;;;;;;;;;;;1.50;99.90;;;;;;5056566;28;19977;-33
2024/01/12 05:32:21;;;;;;;;;;;1.50;99.90;;;;;;5056275;28;19925;-34
2024/01/12 05:34:47;;;;;;;;;;;1.60;99.90;;;;;;5055759;28;19928;-34
2024/01/12 05:37:14;;;;;;;;;;;1.60;99.90;;;;;;5056059;28;20396;-33
2024/01/12 05:39:41;;;;;;;;;;;1.60;99.90;;;;;;5057420;28;19924;-34
2024/01/12 05:42:07;;;;;;;;;;;1.60;99.90;;;;;;5051590;28;19958;-33
2024/01/12 05:44:34;;;;;;;;;;;1.60;99.90;;;;;;5051616;28;19955;-33
2024/01/12 05:47:02;;;;;;;;;;;1.70;99.90;;;;;;5071565;28;19986;-33
2024/01/12 05:49:29;;;;;;;;;;;1.70;99.90;;;;;;5048230;28;19932;-31
2024/01/12 05:51:56;;;;;;;;;;;1.60;99.90;;;;;;5080786;28;19986;-33
2024/01/12 05:54:23;;;;;;;;;;;1.70;99.90;;;;;;5077092;28;19975;-33
2024/01/12 05:56:50;;;;;;;;;;;1.70;99.90;;;;;;5056293;28;19954;-34
2024/01/12 05:59:16;;;;;;;;;;;1.60;99.90;;;;;;5054189;28;19964;-32
2024/01/12 06:01:43;;;;;;;;;;;1.60;99.90;;;;;;5071581;28;19970;-34
2024/01/12 06:04:11;;;;;;;;;;;1.60;99.90;;;;;;5057588;28;19995;-35
2024/01/12 06:06:40;;;;;;;;;;;1.70;99.90;;;;;;5051975;28;19928;-33
2024/01/12 06:09:08;;;;;;;;;;;1.60;99.90;;;;;;5067404;28;19924;-33
2024/01/12 06:11:34;;;;;;;;;;;1.60;99.90;;;;;;5051172;28;19936;-32
2024/01/12 06:14:02;;;;;;;;;;;1.70;99.90;;;;;;5056257;28;20366;-32
2024/01/12 06:16:29;;;;;;;;;;;1.70;99.90;;;;;;5056685;28;20399;-32
2024/01/12 06:18:56;;;;;;;;;;;1.70;99.90;;;;;;5067123;28;20342;-32
2024/01/12 06:21:24;;;;;;;;;;;1.70;99.90;;;;;;5049711;28;19963;-34
2024/01/12 06:23:50;;;;;;;;;;;1.60;99.90;;;;;;5054689;28;19959;-30
2024/01/12 06:26:17;;;;;;;;;;;1.60;99.90;;;;;;5053697;28;19964;-32
2024/01/12 06:28:44;;;;;;;;;;;1.70;99.90;;;;;;5047319;28;19924;-32
2024/01/12 06:31:10;;;;;;;;;;;1.70;99.90;;;;;;5045476;28;19970;-32
2024/01/12 06:33:37;;;;;;;;;;;1.70;99.90;;;;;;5052194;28;19928;-31
2024/01/12 06:36:04;;;;;;;;;;;1.60;99.90;;;;;;5052724;28;19928;-32
2024/01/12 06:38:32;;;;;;;;;;;1.70;99.90;;;;;;5050236;28;19989;-32
2024/01/12 06:40:59;;;;;;;;;;;1.70;99.90;;;;;;5050653;28;19974;-32
2024/01/12 06:43:25;;;;;;;;;;;1.70;99.90;;;;;;5049831;28;19985;-31
2024/01/12 06:45:52;;;;;;;;;;;1.70;99.90;;;;;;5051335;28;19932;-33
2024/01/12 06:48:18;;;;;;;;;;;1.70;99.90;;;;;;5049097;28;19964;-32
2024/01/12 06:50:45;;;;;;;;;;;1.70;99.90;;;;;;5065728;28;19986;-32
2024/01/12 06:53:14;;;;;;;;;;;1.70;99.90;;;;;;5090300;28;20395;-32
2024/01/12 06:55:42;;;;;;;;;;;1.70;99.90;;;;;;5084054;28;19924;-32
2024/01/12 06:58:08;;;;;;;;;;;1.70;99.90;;;;;;5031216;22;20656;-32
2024/01/12 07:00:35;;;;;;;;;;;1.70;99.90;;;;;;5069752;28;19924;-33
2024/01/12 07:03:02;;;;;;;;;;;1.80;99.90;;;;;;5070008;28;19928;-33
2024/01/12 07:05:29;;;;;;;;;;;1.80;99.90;;;;;;5071807;28;20313;-33
2024/01/12 07:07:55;;;;;;;;;;;1.80;99.90;;;;;;5068460;28;19924;-33
2024/01/12 07:10:22;;;;;;;;;;;1.80;99.90;;;;;;5071290;28;19963;-34
2024/01/12 07:12:51;;;;;;;;;;;1.80;99.90;;;;;;5084010;28;20037;-32
2024/01/12 07:15:18;;;;;;;;;;;1.80;99.90;;;;;;5087320;28;20411;-33
2024/01/12 07:17:46;;;;;;;;;;;1.80;99.90;;;;;;5086070;28;19924;-33
2024/01/12 07:20:13;;;;;;;;;;;1.80;99.90;;;;;;5071784;28;19924;-32
2024/01/12 07:22:40;;;;;;;;;;;1.80;99.90;;;;;;5088743;28;19924;-34
2024/01/12 07:25:07;;;;;;;;;;;1.80;99.90;;;;;;5088891;28;20337;-33
2024/01/12 07:27:33;;;;;;;;;;;1.80;99.90;;;;;;5090028;28;19970;-35
2024/01/12 07:30:01;;;;;;;;;;;1.80;99.90;;;;;;5071002;28;20025;-33
2024/01/12 07:32:28;;;;;;;;;;;1.90;99.90;;;;;;5075053;28;19954;-32
2024/01/12 07:34:54;;;;;;;;;;;1.90;99.90;;;;;;5099242;28;19978;-34
2024/01/12 07:37:21;;;;;;;;;;;1.80;99.90;;;;;;5072708;28;19924;-34
2024/01/12 07:39:48;;;;;;;;;;;1.90;99.90;;;;;;5073385;28;19932;-37
2024/01/12 07:42:14;;;;;;;;;;;1.90;99.90;;;;;;5091389;28;19928;-33
2024/01/12 07:44:41;;;;;;;;;;;1.90;99.90;;;;;;5089621;28;20263;-32
2024/01/12 07:47:09;;;;;;;;;;;1.90;99.90;;;;;;5074368;28;20506;-32
2024/01/12 07:49:35;;;;;;;;;;;1.90;99.90;;;;;;5089886;28;20303;-33
2024/01/12 07:52:02;;;;;;;;;;;2.00;99.90;;;;;;5089134;28;19924;-32
2024/01/12 07:54:29;;;;;;;;;;;1.90;99.90;;;;;;5071460;28;19932;-33
2024/01/12 07:56:55;;;;;;;;;;;1.90;99.90;;;;;;5085326;28;19924;-33
2024/01/12 07:59:22;;;;;;;;;;;1.90;99.90;;;;;;5078755;28;19924;-32
2024/01/12 08:01:52;;;;;;;;;;;2.00;99.90;;;;;;5090722;28;19928;-34
2024/01/12 08:04:20;;;;;;;;;;;2.00;99.90;;;;;;5072821;28;19924;-32
2024/01/12 08:06:46;;;;;;;;;;;2.00;99.90;;;;;;5100398;28;19969;-33
2024/01/12 08:09:14;;;;;;;;;;;1.90;99.90;;;;;;5078504;28;19978;-33
2024/01/12 08:11:40;;;;;;;;;;;1.90;99.90;;;;;;5091002;28;19924;-33
2024/01/12 08:14:07;;;;;;;;;;;2.00;99.90;;;;;;5072564;28;19959;-33
2024/01/12 08:16:34;;;;;;;;;;;2.00;99.90;;;;;;5089890;28;19982;-33
2024/01/12 08:19:00;;;;;;;;;;;2.00;99.90;;;;;;5089440;28;19933;-34
2024/01/12 08:21:28;;;;;;;;;;;2.00;99.90;;;;;;5071893;28;19931;-33
2024/01/12 08:23:55;;;;;;;;;;;2.00;99.90;;;;;;5065040;28;19932;-33
2024/01/12 08:26:22;;;;;;;;;;;2.00;99.90;;;;;;5089025;28;19993;-32
2024/01/12 08:28:54;;;;;;;;;;;2.00;99.90;;;;;;5071640;28;19924;-33
2024/01/12 08:31:21;;;;;;;;;;;2.00;99.90;;;;;;5073174;28;19931;-32
2024/01/12 08:33:49;;;;;;;;;;;2.00;99.90;;;;;;5090621;28;20322;-34
2024/01/12 08:36:16;;;;;;;;;;;2.10;99.90;;;;;;5069832;28;20122;-35
2024/01/12 08:38:44;;;;;;;;;;;2.00;99.90;;;;;;5072866;28;19927;-32
2024/01/12 08:41:10;;;;;;;;;;;2.10;99.90;;;;;;5071670;28;19924;-35
2024/01/12 08:43:37;;;;;;;;;;;2.10;99.90;;;;;;5073449;28;19973;-34
2024/01/12 08:46:04;;;;;;;;;;;2.10;99.90;;;;;;5090284;28;19924;-33
2024/01/12 08:48:30;;;;;;;;;;;2.10;99.90;;;;;;5091774;28;19924;-34
2024/01/12 08:50:58;;;;;;;;;;;2.10;99.90;;;;;;5072515;28;20348;-33
2024/01/12 08:53:25;;;;;;;;;;;2.00;99.90;;;;;;5073392;28;20364;-33
2024/01/12 08:55:52;;;;;;;;;;;2.10;99.90;;;;;;5072780;28;19932;-32
2024/01/12 08:58:19;;;;;;;;;;;2.10;99.90;;;;;;5072781;28;19966;-32
2024/01/12 09:00:46;;;;;;;;;;;2.10;99.90;;;;;;5072604;28;20399;-31
2024/01/12 09:03:12;;;;;;;;;;;2.20;99.90;;;;;;5092670;28;19977;-31
2024/01/12 09:05:39;;;;;;;;;;;2.30;99.90;;;;;;5072585;28;19924;-32
2024/01/12 09:08:06;;;;;;;;;;;2.20;99.90;;;;;;5068941;28;19929;-31
2024/01/12 09:10:32;;;;;;;;;;;2.20;99.90;;;;;;5070879;28;19928;-32
2024/01/12 09:13:02;;;;;;;;;;;2.20;99.90;;;;;;5071221;28;19974;-33
2024/01/12 09:15:28;;;;;;;;;;;2.30;99.90;;;;;;5072596;28;20378;-31
2024/01/12 09:17:55;;;;;;;;;;;2.20;99.90;;;;;;5095588;28;19985;-33
2024/01/12 09:20:22;;;;;;;;;;;2.30;99.90;;;;;;5071808;28;19924;-32
2024/01/12 09:22:48;;;;;;;;;;;2.30;99.90;;;;;;5094737;28;19924;-34
2024/01/12 09:25:15;;;;;;;;;;;2.30;99.90;;;;;;5083337;28;19928;-32
2024/01/12 09:27:42;;;;;;;;;;;2.40;99.90;;;;;;5089499;28;19924;-32
2024/01/12 09:30:10;;;;;;;;;;;2.40;99.90;;;;;;5068697;28;19975;-33
2024/01/12 09:32:37;;;;;;;;;;;2.40;99.90;;;;;;5093943;28;19924;-32
2024/01/12 09:35:03;;;;;;;;;;;2.40;99.90;;;;;;5075586;28;19928;-31
2024/01/12 09:37:30;;;;;;;;;;;2.50;99.90;;;;;;5093561;28;19924;-32
2024/01/12 09:39:57;;;;;;;;;;;2.50;99.90;;;;;;5088534;28;20422;-32
2024/01/12 09:42:23;;;;;;;;;;;2.50;99.90;;;;;;5088273;28;19924;-32
2024/01/12 09:44:51;;;;;;;;;;;2.50;99.90;;;;;;5094302;28;19924;-32
2024/01/12 09:47:19;;;;;;;;;;;2.60;99.90;;;;;;5074301;28;20315;-33
2024/01/12 09:49:45;;;;;;;;;;;2.60;99.90;;;;;;5092371;28;20735;-32
2024/01/12 09:52:12;;;;;;;;;;;2.60;99.90;;;;;;5100187;28;19924;-31
2024/01/12 09:54:39;;;;;;;;;;;2.60;99.90;;;;;;5086716;28;19978;-32
2024/01/12 09:57:06;;;;;;;;;;;2.70;99.90;;;;;;5056187;28;19928;-32
2024/01/12 09:59:32;;;;;;;;;;;2.70;99.90;;;;;;5073592;28;19931;-32
2024/01/12 10:01:59;;;;;;;;;;;2.80;99.90;;;;;;5093975;28;19924;-33
2024/01/12 10:04:27;;;;;;;;;;;2.80;99.90;;;;;;5081517;28;19928;-33
2024/01/12 10:06:54;;;;;;;;;;;2.80;99.90;;;;;;5100579;28;19931;-32
2024/01/12 10:09:24;;;;;;;;;;;2.90;99.90;;;;;;5093687;28;19931;-34
2024/01/12 10:11:53;;;;;;;;;;;2.90;99.90;;;;;;5075243;28;19932;-31
2024/01/12 10:14:20;;;;;;;;;;;3.00;99.90;;;;;;5095160;28;19928;-34
2024/01/12 10:16:52;;;;;;;;;;;3.00;99.90;;;;;;5098796;28;20378;-32
2024/01/12 10:19:19;;;;;;;;;;;3.00;99.90;;;;;;5074652;28;20446;-31
2024/01/12 10:21:47;;;;;;;;;;;3.10;99.90;;;;;;5092460;28;19974;-32
2024/01/12 10:24:16;;;;;;;;;;;3.10;99.90;;;;;;5089911;28;19924;-31
2024/01/12 10:26:43;;;;;;;;;;;3.10;99.90;;;;;;5078764;28;19931;-33
2024/01/12 10:29:10;;;;;;;;;;;3.20;99.90;;;;;;5075364;28;19924;-31
2024/01/12 10:31:38;;;;;;;;;;;3.30;99.90;;;;;;5074586;28;19951;-31
2024/01/12 10:34:05;;;;;;;;;;;3.30;99.90;;;;;;5092929;28;19928;-33
2024/01/12 10:36:32;;;;;;;;;;;3.30;99.90;;;;;;5084965;28;19978;-32
2024/01/12 10:38:59;;;;;;;;;;;3.30;99.90;;;;;;5075658;28;19925;-34
2024/01/12 10:41:26;;;;;;;;;;;3.40;99.90;;;;;;5067917;28;19978;-33
2024/01/12 10:43:54;;;;;;;;;;;3.40;99.90;;;;;;5091214;28;21736;-32
2024/01/12 10:46:23;;;;;;;;;;;3.50;99.90;;;;;;5091980;28;20053;-33
2024/01/12 10:48:56;;;;;;;;;;;3.50;99.90;;;;;;5091691;28;19928;-32
2024/01/12 10:51:22;;;;;;;;;;;3.60;99.90;;;;;;5085978;28;19991;-34
2024/01/12 10:53:51;;;;;;;;;;;3.60;99.90;;;;;;5074628;28;19969;-33
2024/01/12 10:56:19;;;;;;;;;;;3.70;99.90;;;;;;5073160;28;20382;-33
2024/01/12 10:58:46;;;;;;;;;;;3.70;99.90;;;;;;5091243;28;20194;-33
2024/01/12 11:01:13;;;;;;;;;;;3.70;99.90;;;;;;5070716;28;19931;-33
2024/01/12 11:03:40;;;;;;;;;;;3.70;99.90;;;;;;5084367;28;19954;-33
2024/01/12 11:06:07;;;;;;;;;;;3.80;99.90;;;;;;5073427;28;20355;-33
2024/01/12 11:08:34;;;;;;;;;;;3.70;99.90;;;;;;5090728;28;19935;-32
2024/01/12 11:11:00;;;;;;;;;;;3.80;99.90;;;;;;5091540;28;19971;-33
2024/01/12 11:13:28;;;;;;;;;;;3.80;99.90;;;;;;5072953;28;20016;-32
2024/01/12 11:15:55;;;;;;;;;;;3.80;99.90;;;;;;5073560;28;19973;-33
2024/01/12 11:18:22;;;;;;;;;;;3.80;99.90;;;;;;5074555;28;20425;-33
2024/01/12 11:20:49;;;;;;;;;;;3.90;99.90;;;;;;5087001;28;19936;-34
2024/01/12 11:23:17;;;;;;;;;;;3.80;99.90;;;;;;5094448;28;20303;-33
2024/01/12 11:25:44;;;;;;;;;;;3.90;99.90;;;;;;5062398;28;19971;-34
2024/01/12 11:28:11;;;;;;;;;;;3.90;99.90;;;;;;5088411;28;19974;-34
2024/01/12 11:30:42;;;;;;;;;;;3.90;99.90;;;;;;5091642;28;20360;-33
2024/01/12 11:33:10;;;;;;;;;;;3.90;99.90;;;;;;5072130;28;20408;-34
2024/01/12 11:35:39;;;;;;;;;;;3.90;99.90;;;;;;5090444;28;19947;-32
2024/01/12 11:38:07;;;;;;;;;;;4.00;99.90;;;;;;5072695;28;20061;-33
2024/01/12 11:40:33;;;;;;;;;;;4.00;99.90;;;;;;5090076;28;20296;-31
2024/01/12 11:43:00;;;;;;;;;;;4.00;99.90;;;;;;5090977;28;19924;-32
2024/01/12 11:45:27;;;;;;;;;;;4.00;99.90;;;;;;5090359;28;19924;-31
2024/01/12 11:47:55;;;;;;;;;;;4.10;99.90;;;;;;5074031;28;19924;-33
2024/01/12 11:50:24;;;;;;;;;;;4.10;99.90;;;;;;5073629;28;20008;-32
2024/01/12 11:52:57;;;;;;;;;;;4.10;99.90;;;;;;5107365;28;20070;-30
2024/01/12 11:55:24;;;;;;;;;;;4.10;99.90;;;;;;5069784;28;19984;-33
2024/01/12 11:57:51;;;;;;;;;;;4.10;99.90;;;;;;5090183;28;19924;-32
2024/01/12 12:00:18;;;;;;;;;;;4.10;99.90;;;;;;5066870;28;19924;-33
2024/01/12 12:02:45;;;;;;;;;;;4.10;99.90;;;;;;5091045;28;19977;-33
2024/01/12 12:05:13;;;;;;;;;;;4.20;99.90;;;;;;5071738;28;20027;-32
2024/01/12 12:07:40;;;;;;;;;;;4.10;99.90;;;;;;5070986;28;19924;-33
2024/01/12 12:10:07;;;;;;;;;;;4.20;99.90;;;;;;5067612;28;20391;-32
2024/01/12 12:12:34;;;;;;;;;;;4.20;99.90;;;;;;5072941;28;20396;-34
2024/01/12 12:15:04;;;;;;;;;;;4.20;99.90;;;;;;5072186;28;20444;-33
2024/01/12 12:17:30;;;;;;;;;;;4.20;99.90;;;;;;5080567;28;20348;-32
2024/01/12 12:19:57;;;;;;;;;;;4.30;99.90;;;;;;5073188;28;19966;-32
2024/01/12 12:22:25;;;;;;;;;;;4.30;99.90;;;;;;5088549;28;19924;-33
2024/01/12 12:24:52;;;;;;;;;;;4.30;99.90;;;;;;5073073;28;19931;-32
2024/01/12 12:27:20;;;;;;;;;;;4.20;99.90;;;;;;5072581;28;19931;-32
2024/01/12 12:29:46;;;;;;;;;;;4.30;99.90;;;;;;5072494;28;19928;-33
2024/01/12 12:32:13;;;;;;;;;;;4.40;99.90;;;;;;5073249;28;19967;-32
2024/01/12 12:34:40;;;;;;;;;;;4.40;99.90;;;;;;5084242;28;19924;-33
2024/01/12 12:37:07;;;;;;;;;;;4.40;99.90;;;;;;5061986;28;19935;-33
2024/01/12 12:39:36;;;;;;;;;;;4.40;99.90;;;;;;5073199;28;19982;-32
2024/01/12 12:42:03;;;;;;;;;;;4.50;99.90;;;;;;5090471;28;19931;-32
2024/01/12 12:44:31;;;;;;;;;;;4.50;99.90;;;;;;5091101;28;19924;-32
2024/01/12 12:46:58;;;;;;;;;;;4.50;99.90;;;;;;5089249;28;19928;-33
2024/01/12 12:49:30;;;;;;;;;;;4.50;99.90;;;;;;5085073;28;19925;-33
2024/01/12 12:51:58;;;;;;;;;;;4.50;99.90;;;;;;5071370;28;19972;-34
2024/01/12 12:54:27;;;;;;;;;;;4.50;99.90;;;;;;5089335;28;20010;-32
2024/01/12 12:56:55;;;;;;;;;;;4.50;99.90;;;;;;5089909;28;20383;-33
2024/01/12 12:59:21;;;;;;;;;;;4.50;99.90;;;;;;5076414;28;19963;-32
2024/01/12 13:01:48;;;;;;;;;;;4.50;99.90;;;;;;5078063;28;19955;-33
2024/01/12 13:04:14;;;;;;;;;;;4.60;99.90;;;;;;5080658;28;19924;-34
2024/01/12 13:06:41;;;;;;;;;;;4.60;99.90;;;;;;5077141;28;19978;-33
2024/01/12 13:09:08;;;;;;;;;;;4.60;99.90;;;;;;5077702;28;19986;-32
2024/01/12 13:11:35;;;;;;;;;;;4.60;99.90;;;;;;5077554;28;19931;-33
2024/01/12 13:14:04;;;;;;;;;;;4.70;99.90;;;;;;5076685;28;19930;-32
2024/01/12 13:16:31;;;;;;;;;;;4.60;99.90;;;;;;5077270;28;19928;-35
2024/01/12 13:18:57;;;;;;;;;;;4.60;99.90;;;;;;5077709;28;19924;-32
2024/01/12 13:21:24;;;;;;;;;;;4.60;99.90;;;;;;5087378;28;20040;-32
2024/01/12 13:23:51;;;;;;;;;;;4.60;99.90;;;;;;5085141;28;20377;-32
2024/01/12 13:26:17;;;;;;;;;;;4.70;99.90;;;;;;5090180;28;20345;-33
2024/01/12 13:28:44;;;;;;;;;;;4.60;99.90;;;;;;5074502;28;20329;-34
2024/01/12 13:31:12;;;;;;;;;;;4.70;99.90;;;;;;5075844;28;20007;-33
2024/01/12 13:33:39;;;;;;;;;;;4.70;99.90;;;;;;5076115;28;19924;-34
2024/01/12 13:36:06;;;;;;;;;;;4.70;99.90;;;;;;5094331;28;19924;-32
2024/01/12 13:38:32;;;;;;;;;;;4.60;99.90;;;;;;5089342;28;19931;-33
2024/01/12 13:40:59;;;;;;;;;;;4.70;99.90;;;;;;5076257;28;19971;-33
2024/01/12 13:43:26;;;;;;;;;;;4.70;99.90;;;;;;5074624;28;19969;-33
2024/01/12 13:45:52;;;;;;;;;;;4.60;99.90;;;;;;5075312;28;20044;-32
2024/01/12 13:48:25;;;;;;;;;;;4.60;99.90;;;;;;5075707;28;19968;-33
2024/01/12 13:50:53;;;;;;;;;;;4.60;99.90;;;;;;5076058;28;19924;-33
2024/01/12 13:53:20;;;;;;;;;;;4.60;99.90;;;;;;5076194;28;19950;-33
2024/01/12 13:55:46;;;;;;;;;;;4.60;99.90;;;;;;5071768;28;19924;-33
2024/01/12 13:58:13;;;;;;;;;;;4.60;99.90;;;;;;5075642;28;19924;-35
2024/01/12 14:00:40;;;;;;;;;;;4.60;99.90;;;;;;5075430;28;20406;-33
2024/01/12 14:03:07;;;;;;;;;;;4.70;99.90;;;;;;5074661;28;19928;-33
2024/01/12 14:05:35;;;;;;;;;;;4.60;99.90;;;;;;5074879;28;19924;-33
2024/01/12 14:08:01;;;;;;;;;;;4.60;99.90;;;;;;5074441;28;19970;-33
2024/01/12 14:10:28;;;;;;;;;;;4.60;99.90;;;;;;5091864;28;19928;-35
2024/01/12 14:12:54;;;;;;;;;;;4.60;99.90;;;;;;5075870;28;19924;-33
2024/01/12 14:15:21;;;;;;;;;;;4.60;99.90;;;;;;5075334;28;20433;-34
2024/01/12 14:17:48;;;;;;;;;;;4.60;99.90;;;;;;5073291;28;19928;-34
2024/01/12 14:20:15;;;;;;;;;;;4.60;99.90;;;;;;5074617;28;20017;-33
2024/01/12 14:22:43;;;;;;;;;;;4.60;99.90;;;;;;5091536;28;19947;-34
2024/01/12 14:25:10;;;;;;;;;;;4.60;99.90;;;;;;5086134;28;19924;-33
2024/01/12 14:27:36;;;;;;;;;;;4.60;99.90;;;;;;5074215;28;20410;-34
2024/01/12 14:30:03;;;;;;;;;;;4.60;99.90;;;;;;5081953;28;19998;-34